createdAt,value
2023-04-02T00:01:50.352Z,23.38
2023-04-02T00:04:23.560Z,23.36
2023-04-02T00:07:15.712Z,23.38
2023-04-02T00:09:46.555Z,23.36
2023-04-02T00:12:24.619Z,23.37
2023-04-02T00:14:55.437Z,23.36
2023-04-02T00:17:25.944Z,23.36
2023-04-02T00:19:58.661Z,23.37
2023-04-02T00:22:29.479Z,23.36
2023-04-02T00:25:01.600Z,23.36
2023-04-02T00:27:31.971Z,23.35
2023-04-02T00:30:01.927Z,23.36
2023-04-02T00:32:33.102Z,23.35
2023-04-02T00:35:02.343Z,23.35
2023-04-02T00:37:39.111Z,23.36
2023-04-02T00:40:15.579Z,23.35
2023-04-02T00:42:44.927Z,23.35
2023-04-02T00:45:19.857Z,23.36
2023-04-02T00:47:48.791Z,23.36
2023-04-02T00:50:24.705Z,23.35
2023-04-02T00:52:54.009Z,23.35
2023-04-02T00:55:26.318Z,23.35
2023-04-02T00:58:00.774Z,23.35
2023-04-02T01:00:30.762Z,23.34
2023-04-02T01:03:34.849Z,23.34
2023-04-02T01:06:10.916Z,23.34
2023-04-02T01:08:54.469Z,23.34
2023-04-02T01:11:55.765Z,23.35
2023-04-02T01:14:36.933Z,23.34
2023-04-02T01:17:11.060Z,23.35
2023-04-02T01:20:26.430Z,23.33
2023-04-02T01:22:58.213Z,23.35
2023-04-02T01:25:29.948Z,23.34
2023-04-02T01:28:05.792Z,23.34
2023-04-02T01:30:36.836Z,23.34
2023-04-02T01:33:06.480Z,23.34
2023-04-02T01:35:37.977Z,23.33
2023-04-02T01:38:10.726Z,23.35
2023-04-02T01:40:41.189Z,23.34
2023-04-02T01:43:17.355Z,23.34
2023-04-02T01:45:47.788Z,23.35
2023-04-02T01:48:18.340Z,23.34
2023-04-02T01:50:47.370Z,23.33
2023-04-02T01:53:17.907Z,23.33
2023-04-02T01:55:48.965Z,23.34
2023-04-02T01:58:20.972Z,23.33
2023-04-02T02:00:53.380Z,23.34
2023-04-02T02:03:22.293Z,23.33
2023-04-02T02:05:51.225Z,23.34
2023-04-02T02:08:35.861Z,23.34
2023-04-02T02:11:05.129Z,23.34
2023-04-02T02:13:33.791Z,23.35
2023-04-02T02:16:04.808Z,23.34
2023-04-02T02:18:33.505Z,23.34
2023-04-02T02:21:02.280Z,23.34
2023-04-02T02:23:31.258Z,23.33
2023-04-02T02:26:00.229Z,23.33
2023-04-02T02:28:29.462Z,23.33
2023-04-02T02:31:00.189Z,23.32
2023-04-02T02:33:32.248Z,23.32
2023-04-02T02:36:01.880Z,23.32
2023-04-02T02:38:47.508Z,23.32
2023-04-02T02:41:20.863Z,23.33
2023-04-02T02:43:57.972Z,23.31
2023-04-02T02:46:26.464Z,23.31
2023-04-02T02:48:56.808Z,23.31
2023-04-02T02:51:29.116Z,23.31
2023-04-02T02:54:01.000Z,23.33
2023-04-02T02:56:29.497Z,23.31
2023-04-02T02:58:58.286Z,23.31
2023-04-02T03:01:29.081Z,23.31
2023-04-02T03:03:59.552Z,23.31
2023-04-02T03:06:28.210Z,23.32
2023-04-02T03:09:03.445Z,23.30
2023-04-02T03:11:37.813Z,23.30
2023-04-02T03:14:15.632Z,23.31
2023-04-02T03:16:46.053Z,23.31
2023-04-02T03:19:25.556Z,23.30
2023-04-02T03:21:55.986Z,23.31
2023-04-02T03:24:33.465Z,23.31
2023-04-02T03:27:04.652Z,23.29
2023-04-02T03:29:34.344Z,23.30
2023-04-02T03:32:05.809Z,23.31
2023-04-02T03:34:38.290Z,23.30
2023-04-02T03:37:09.604Z,23.31
2023-04-02T03:39:40.224Z,23.30
2023-04-02T03:42:11.485Z,23.30
2023-04-02T03:44:44.780Z,23.30
2023-04-02T03:47:15.829Z,23.31
2023-04-02T03:49:49.311Z,23.29
2023-04-02T03:52:21.640Z,23.30
2023-04-02T03:54:54.089Z,23.29
2023-04-02T03:57:28.006Z,23.29
2023-04-02T03:59:59.651Z,23.30
2023-04-02T04:02:39.934Z,23.30
2023-04-02T04:05:23.515Z,23.30
2023-04-02T04:07:53.879Z,23.29
2023-04-02T04:10:25.101Z,23.29
2023-04-02T04:12:55.591Z,23.28
2023-04-02T04:15:27.095Z,23.28
2023-04-02T04:18:02.167Z,23.28
2023-04-02T04:20:35.868Z,23.27
2023-04-02T04:23:15.444Z,23.29
2023-04-02T04:25:43.960Z,23.29
2023-04-02T04:28:21.526Z,23.29
2023-04-02T04:30:52.787Z,23.29
2023-04-02T04:33:23.476Z,23.28
2023-04-02T04:35:55.724Z,23.28
2023-04-02T04:38:32.962Z,23.27
2023-04-02T04:41:05.814Z,23.28
2023-04-02T04:43:43.514Z,23.28
2023-04-02T04:46:14.039Z,23.28
2023-04-02T04:48:49.430Z,23.27
2023-04-02T04:51:22.629Z,23.27
2023-04-02T04:53:52.567Z,23.28
2023-04-02T04:56:23.577Z,23.27
2023-04-02T04:58:54.265Z,23.27
2023-04-02T05:01:25.638Z,23.26
2023-04-02T05:03:58.883Z,23.27
2023-04-02T05:06:37.568Z,23.26
2023-04-02T05:09:12.805Z,23.27
2023-04-02T05:11:44.892Z,23.25
2023-04-02T05:14:27.127Z,23.28
2023-04-02T05:16:59.984Z,23.27
2023-04-02T05:19:32.291Z,23.27
2023-04-02T05:22:07.403Z,23.27
2023-04-02T05:24:46.191Z,23.28
2023-04-02T05:27:25.076Z,23.27
2023-04-02T05:29:58.003Z,23.28
2023-04-02T05:32:29.596Z,23.28
2023-04-02T05:34:58.220Z,23.28
2023-04-02T05:37:29.855Z,23.27
2023-04-02T05:40:00.367Z,23.28
2023-04-02T05:42:30.278Z,23.28
2023-04-02T05:45:08.236Z,23.29
2023-04-02T05:47:41.271Z,23.29
2023-04-02T05:50:23.215Z,23.30
2023-04-02T05:52:57.021Z,23.32
2023-04-02T05:55:43.659Z,23.29
2023-04-02T05:58:34.726Z,23.31
2023-04-02T06:01:20.988Z,23.31
2023-04-02T06:03:57.496Z,23.32
2023-04-02T06:06:45.127Z,23.28
2023-04-02T06:09:18.253Z,23.34
2023-04-02T06:11:48.298Z,23.31
2023-04-02T06:14:17.612Z,23.35
2023-04-02T06:16:46.558Z,23.35
2023-04-02T06:19:20.128Z,23.35
2023-04-02T06:21:49.931Z,23.35
2023-04-02T06:24:23.028Z,23.37
2023-04-02T06:26:53.296Z,23.38
2023-04-02T06:29:26.798Z,23.38
2023-04-02T06:31:56.856Z,23.40
2023-04-02T06:34:26.816Z,23.44
2023-04-02T06:36:57.853Z,23.42
2023-04-02T06:39:28.579Z,23.44
2023-04-02T06:42:01.040Z,23.43
2023-04-02T06:44:31.307Z,23.43
2023-04-02T06:47:00.951Z,23.38
2023-04-02T06:49:34.450Z,23.41
2023-04-02T06:52:03.731Z,23.39
2023-04-02T06:54:33.581Z,23.38
2023-04-02T06:57:02.170Z,23.38
2023-04-02T06:59:30.730Z,23.40
2023-04-02T07:02:03.490Z,23.38
2023-04-02T07:04:32.010Z,23.38
2023-04-02T07:07:00.593Z,23.38
2023-04-02T07:09:29.061Z,23.37
2023-04-02T07:11:58.971Z,23.33
2023-04-02T07:14:27.634Z,23.29
2023-04-02T07:16:56.193Z,23.31
2023-04-02T07:19:24.722Z,23.35
2023-04-02T07:21:53.145Z,23.37
2023-04-02T07:24:21.569Z,23.36
2023-04-02T07:26:50.001Z,23.35
2023-04-02T07:29:19.993Z,23.36
2023-04-02T07:31:48.465Z,23.35
2023-04-02T07:34:16.904Z,23.37
2023-04-02T07:36:45.425Z,23.37
2023-04-02T07:39:13.938Z,23.37
2023-04-02T07:41:55.370Z,23.36
2023-04-02T07:44:25.235Z,23.38
2023-04-02T07:46:53.711Z,23.38
2023-04-02T07:49:22.278Z,23.38
2023-04-02T07:51:50.869Z,23.37
2023-04-02T07:54:19.383Z,23.38
2023-04-02T07:56:47.897Z,23.36
2023-04-02T07:59:16.457Z,23.36
2023-04-02T08:01:46.340Z,23.36
2023-04-02T08:04:19.497Z,23.38
2023-04-02T08:06:48.141Z,23.40
2023-04-02T08:09:16.683Z,23.41
2023-04-02T08:11:46.721Z,23.40
2023-04-02T08:14:15.625Z,23.35
2023-04-02T08:16:49.726Z,23.30
2023-04-02T08:19:18.282Z,23.33
2023-04-02T08:21:48.202Z,23.35
2023-04-02T08:24:19.114Z,23.37
2023-04-02T08:26:47.848Z,23.37
2023-04-02T08:29:16.978Z,23.38
2023-04-02T08:31:45.468Z,23.38
2023-04-02T08:34:15.550Z,23.39
2023-04-02T08:36:45.643Z,23.41
2023-04-02T08:39:14.770Z,23.41
2023-04-02T08:41:46.918Z,23.47
2023-04-02T08:44:36.903Z,23.46
2023-04-02T08:47:06.460Z,23.40
2023-04-02T08:49:39.011Z,23.40
2023-04-02T08:52:07.465Z,23.38
2023-04-02T08:54:38.113Z,23.39
2023-04-02T08:57:08.695Z,23.43
2023-04-02T08:59:38.021Z,23.41
2023-04-02T09:02:25.629Z,23.40
2023-04-02T09:04:56.070Z,23.38
2023-04-02T09:07:24.717Z,23.37
2023-04-02T09:09:53.199Z,23.36
2023-04-02T09:12:23.834Z,23.37
2023-04-02T09:15:01.062Z,23.38
2023-04-02T09:17:34.724Z,23.37
2023-04-02T09:20:18.079Z,23.38
2023-04-02T09:22:46.844Z,23.37
2023-04-02T09:25:21.305Z,23.37
2023-04-02T09:27:50.842Z,23.37
2023-04-02T09:30:29.661Z,23.36
2023-04-02T09:33:01.041Z,23.37
2023-04-02T09:35:32.471Z,23.36
2023-04-02T09:38:21.088Z,23.36
2023-04-02T09:40:52.647Z,23.36
2023-04-02T09:43:22.406Z,23.36
2023-04-02T09:45:59.505Z,23.36
2023-04-02T09:48:31.195Z,23.35
2023-04-02T09:51:17.564Z,23.37
2023-04-02T09:53:47.272Z,23.38
2023-04-02T09:56:18.774Z,23.38
2023-04-02T09:58:47.835Z,23.37
2023-04-02T10:01:32.306Z,23.36
2023-04-02T10:04:01.229Z,23.36
2023-04-02T10:06:31.514Z,23.36
2023-04-02T10:08:59.955Z,23.35
2023-04-02T10:11:43.723Z,23.34
2023-04-02T10:14:19.349Z,23.36
2023-04-02T10:16:50.862Z,23.36
2023-04-02T10:19:26.487Z,23.36
2023-04-02T10:21:57.549Z,23.38
2023-04-02T10:24:28.725Z,23.41
2023-04-02T10:27:04.111Z,23.38
2023-04-02T10:30:10.427Z,23.37
2023-04-02T10:32:42.312Z,23.35
2023-04-02T10:35:16.965Z,23.37
2023-04-02T10:38:42.713Z,23.33
2023-04-02T10:41:23.125Z,23.30
2023-04-02T10:44:20.469Z,23.35
2023-04-02T10:46:57.225Z,23.34
2023-04-02T10:49:32.289Z,23.37
2023-04-02T10:52:03.451Z,23.37
2023-04-02T10:54:41.226Z,23.36
2023-04-02T10:57:20.836Z,23.36
2023-04-02T10:59:52.611Z,23.42
2023-04-02T11:02:39.779Z,23.44
2023-04-02T11:05:22.535Z,23.42
2023-04-02T11:07:57.502Z,23.41
2023-04-02T11:10:26.111Z,23.42
2023-04-02T11:12:57.919Z,23.41
2023-04-02T11:15:26.414Z,23.38
2023-04-02T11:17:54.888Z,23.38
2023-04-02T11:21:04.970Z,23.39
2023-04-02T11:23:58.298Z,23.40
2023-04-02T11:26:47.446Z,23.41
2023-04-02T11:29:22.544Z,23.45
2023-04-02T11:31:53.081Z,23.44
2023-04-02T11:35:26.226Z,23.43
2023-04-02T11:37:56.437Z,23.44
2023-04-02T11:40:49.507Z,23.42
2023-04-02T11:43:52.642Z,23.40
2023-04-02T11:46:47.518Z,23.41
2023-04-02T11:49:42.040Z,23.41
2023-04-02T11:52:23.345Z,23.42
2023-04-02T11:55:29.187Z,23.38
2023-04-02T11:58:28.514Z,23.40
2023-04-02T12:01:34.823Z,23.41
2023-04-02T12:05:04.499Z,23.39
2023-04-02T12:08:05.880Z,23.41
2023-04-02T12:10:34.925Z,23.40
2023-04-02T12:13:03.437Z,23.41
2023-04-02T12:15:40.592Z,23.40
2023-04-02T12:18:16.089Z,23.33
2023-04-02T12:20:50.938Z,23.36
2023-04-02T12:23:21.489Z,23.40
2023-04-02T12:25:58.534Z,23.43
2023-04-02T12:28:28.915Z,23.42
2023-04-02T12:31:06.202Z,23.42
2023-04-02T12:33:37.574Z,23.43
2023-04-02T12:36:10.087Z,23.45
2023-04-02T12:38:45.888Z,23.46
2023-04-02T12:41:24.506Z,23.46
2023-04-02T12:43:59.583Z,23.46
2023-04-02T12:46:28.274Z,23.45
2023-04-02T12:49:06.182Z,23.46
2023-04-02T12:51:37.147Z,23.46
2023-04-02T12:54:06.276Z,23.46
2023-04-02T12:56:34.839Z,23.47
2023-04-02T12:59:03.340Z,23.49
2023-04-02T13:01:34.001Z,23.48
2023-04-02T13:04:04.991Z,23.50
2023-04-02T13:06:33.637Z,23.50
2023-04-02T13:09:04.862Z,23.41
2023-04-02T13:11:37.525Z,23.40
2023-04-02T13:14:07.790Z,23.44
2023-04-02T13:16:36.980Z,23.45
2023-04-02T13:19:24.030Z,23.47
2023-04-02T13:21:53.413Z,23.47
2023-04-02T13:24:24.889Z,23.46
2023-04-02T13:26:56.542Z,23.48
2023-04-02T13:29:28.407Z,23.47
2023-04-02T13:31:58.854Z,23.45
2023-04-02T13:34:27.407Z,23.46
2023-04-02T13:36:57.468Z,23.45
2023-04-02T13:39:27.498Z,23.46
2023-04-02T13:41:58.093Z,23.46
2023-04-02T13:44:27.865Z,23.47
2023-04-02T13:46:56.539Z,23.46
2023-04-02T13:49:25.239Z,23.46
2023-04-02T13:51:54.459Z,23.48
2023-04-02T13:54:27.461Z,23.48
2023-04-02T13:56:56.645Z,23.48
2023-04-02T13:59:26.125Z,23.49
2023-04-02T14:01:56.517Z,23.47
2023-04-02T14:04:26.826Z,23.50
2023-04-02T14:07:27.478Z,23.46
2023-04-02T14:10:04.185Z,23.47
2023-04-02T14:12:47.267Z,23.41
2023-04-02T14:15:29.427Z,23.28
2023-04-02T14:18:20.046Z,23.41
2023-04-02T14:20:52.111Z,23.44
2023-04-02T14:23:43.043Z,23.47
2023-04-02T14:26:17.523Z,23.45
2023-04-02T14:28:50.724Z,23.47
2023-04-02T14:31:23.072Z,23.46
2023-04-02T14:33:57.638Z,23.46
2023-04-02T14:36:30.896Z,23.45
2023-04-02T14:39:04.475Z,23.43
2023-04-02T14:41:38.006Z,23.45
2023-04-02T14:44:07.682Z,23.46
2023-04-02T14:46:38.555Z,23.47
2023-04-02T14:49:18.452Z,23.46
2023-04-02T14:51:49.817Z,23.48
2023-04-02T14:54:23.712Z,23.49
2023-04-02T14:56:55.655Z,23.50
2023-04-02T14:59:30.929Z,23.48
2023-04-02T15:02:02.835Z,23.49
2023-04-02T15:04:35.671Z,23.49
2023-04-02T15:07:07.589Z,23.47
2023-04-02T15:09:39.033Z,23.48
2023-04-02T15:12:13.902Z,23.48
2023-04-02T15:14:45.550Z,23.47
2023-04-02T15:17:14.053Z,23.48
2023-04-02T15:19:42.542Z,23.47
2023-04-02T15:22:25.706Z,23.48
2023-04-02T15:25:00.568Z,23.47
2023-04-02T15:27:45.538Z,23.47
2023-04-02T15:30:15.620Z,23.47
2023-04-02T15:32:44.273Z,23.46
2023-04-02T15:35:24.602Z,23.48
2023-04-02T15:38:02.152Z,23.49
2023-04-02T15:40:49.014Z,23.48
2023-04-02T15:43:23.050Z,23.49
2023-04-02T15:45:59.249Z,23.49
2023-04-02T15:48:41.910Z,23.47
2023-04-02T15:51:21.081Z,23.48
2023-04-02T15:53:55.912Z,23.48
2023-04-02T15:56:26.874Z,23.46
2023-04-02T15:59:28.054Z,23.47
2023-04-02T16:02:00.901Z,23.47
2023-04-02T16:04:46.155Z,23.44
2023-04-02T16:07:42.355Z,23.44
2023-04-02T16:10:14.307Z,23.45
2023-04-02T16:12:42.784Z,23.44
2023-04-02T16:15:17.920Z,23.47
2023-04-02T16:17:47.632Z,23.43
2023-04-02T16:20:21.260Z,23.45
2023-04-02T16:23:00.571Z,23.46
2023-04-02T16:25:31.422Z,23.46
2023-04-02T16:28:08.298Z,23.46
2023-04-02T16:30:57.021Z,23.45
2023-04-02T16:33:37.767Z,23.45
2023-04-02T16:36:19.039Z,23.46
2023-04-02T16:38:57.751Z,23.46
2023-04-02T16:41:40.957Z,23.38
2023-04-02T16:44:24.749Z,23.38
2023-04-02T16:47:05.271Z,23.24
2023-04-02T16:49:38.399Z,23.35
2023-04-02T16:52:19.541Z,23.40
2023-04-02T16:54:53.664Z,23.41
2023-04-02T16:57:31.440Z,23.43
2023-04-02T17:00:08.085Z,23.45
2023-04-02T17:02:46.904Z,23.45
2023-04-02T17:05:25.881Z,23.46
2023-04-02T17:08:01.805Z,23.44
2023-04-02T17:10:32.207Z,23.45
2023-04-02T17:13:09.105Z,23.46
2023-04-02T17:15:39.514Z,23.46
2023-04-02T17:18:15.927Z,23.49
2023-04-02T17:20:44.519Z,23.47
2023-04-02T17:23:14.834Z,23.52
2023-04-02T17:25:50.080Z,23.46
2023-04-02T17:28:25.582Z,23.48
2023-04-02T17:30:56.832Z,23.48
2023-04-02T17:33:28.590Z,23.44
2023-04-02T17:36:32.804Z,23.43
2023-04-02T17:39:11.345Z,23.42
2023-04-02T17:41:44.326Z,23.41
2023-04-02T17:44:32.470Z,23.41
2023-04-02T17:47:04.639Z,23.41
2023-04-02T17:49:39.043Z,23.40
2023-04-02T17:52:10.016Z,23.43
2023-04-02T17:54:43.771Z,23.42
2023-04-02T17:57:35.510Z,23.39
2023-04-02T18:00:26.762Z,23.42
2023-04-02T18:03:08.021Z,23.40
2023-04-02T18:05:42.594Z,23.42
2023-04-02T18:08:18.747Z,23.42
2023-04-02T18:10:54.497Z,23.41
2023-04-02T18:13:32.514Z,23.40
2023-04-02T18:16:11.335Z,23.38
2023-04-02T18:18:56.564Z,23.35
2023-04-02T18:21:31.837Z,23.41
2023-04-02T18:24:16.148Z,23.44
2023-04-02T18:26:49.788Z,23.46
2023-04-02T18:29:26.551Z,23.46
2023-04-02T18:31:59.413Z,23.47
2023-04-02T18:34:45.316Z,23.44
2023-04-02T18:37:24.632Z,23.43
2023-04-02T18:40:05.499Z,23.42
2023-04-02T18:42:47.942Z,23.42
2023-04-02T18:45:19.680Z,23.42
2023-04-02T18:47:53.136Z,23.43
2023-04-02T18:50:25.577Z,23.43
2023-04-02T18:52:55.780Z,23.42
2023-04-02T18:55:27.083Z,23.43
2023-04-02T18:58:00.644Z,23.42
2023-04-02T19:00:31.789Z,23.42
2023-04-02T19:03:03.865Z,23.43
2023-04-02T19:05:42.249Z,23.44
2023-04-02T19:08:17.614Z,23.42
2023-04-02T19:10:46.653Z,23.42
2023-04-02T19:13:16.412Z,23.44
2023-04-02T19:16:15.136Z,23.42
2023-04-02T19:18:50.708Z,23.41
2023-04-02T19:21:24.305Z,23.41
2023-04-02T19:24:12.398Z,23.42
2023-04-02T19:26:45.178Z,23.41
2023-04-02T19:29:21.472Z,23.40
2023-04-02T19:31:53.359Z,23.40
2023-04-02T19:34:25.716Z,23.40
2023-04-02T19:36:56.313Z,23.38
2023-04-02T19:40:09.413Z,23.37
2023-04-02T19:42:47.658Z,23.37
2023-04-02T19:45:34.654Z,23.37
2023-04-02T19:48:11.072Z,23.38
2023-04-02T19:50:39.722Z,23.36
2023-04-02T19:53:08.192Z,23.37
2023-04-02T19:55:38.334Z,23.37
2023-04-02T19:58:17.680Z,23.36
2023-04-02T20:00:47.916Z,23.36
2023-04-02T20:03:16.435Z,23.37
2023-04-02T20:05:44.949Z,23.36
2023-04-02T20:08:13.529Z,23.38
2023-04-02T20:10:43.533Z,23.38
2023-04-02T20:13:12.083Z,23.37
2023-04-02T20:15:41.147Z,23.38
2023-04-02T20:18:10.570Z,23.37
2023-04-02T20:20:39.407Z,23.37
2023-04-02T20:23:07.923Z,23.38
2023-04-02T20:25:36.712Z,23.38
2023-04-02T20:28:07.605Z,23.38
2023-04-02T20:30:36.326Z,23.39
2023-04-02T20:33:05.684Z,23.39
2023-04-02T20:35:35.696Z,23.37
2023-04-02T20:38:06.632Z,23.38
2023-04-02T20:40:35.434Z,23.42
2023-04-02T20:43:05.500Z,23.40
2023-04-02T20:45:34.099Z,23.36
2023-04-02T20:48:02.704Z,23.35
2023-04-02T20:50:31.323Z,23.34
2023-04-02T20:53:00.034Z,23.33
2023-04-02T20:55:28.692Z,23.31
2023-04-02T20:57:57.205Z,23.32
2023-04-02T21:00:27.296Z,23.30
2023-04-02T21:02:55.922Z,23.31
2023-04-02T21:05:24.613Z,23.30
2023-04-02T21:07:53.118Z,23.31
2023-04-02T21:10:21.742Z,23.31
2023-04-02T21:12:50.514Z,23.30
2023-04-02T21:15:19.341Z,23.30
2023-04-02T21:17:49.267Z,23.30
2023-04-02T21:20:18.054Z,23.30
2023-04-02T21:22:46.520Z,23.30
2023-04-02T21:25:15.217Z,23.30
2023-04-02T21:27:44.067Z,23.29
2023-04-02T21:30:13.738Z,23.29
2023-04-02T21:32:42.455Z,23.30
2023-04-02T21:35:12.442Z,23.30
2023-04-02T21:37:40.861Z,23.29
2023-04-02T21:40:11.052Z,23.31
2023-04-02T21:42:39.498Z,23.28
2023-04-02T21:45:09.132Z,23.29
2023-04-02T21:47:37.621Z,23.29
2023-04-02T21:50:07.621Z,23.29
2023-04-02T21:52:37.480Z,23.31
2023-04-02T21:55:06.882Z,23.30
2023-04-02T21:57:35.597Z,23.30
2023-04-02T22:00:08.377Z,23.28
2023-04-02T22:02:37.104Z,23.28
2023-04-02T22:05:06.557Z,23.29
2023-04-02T22:07:36.423Z,23.28
2023-04-02T22:10:05.743Z,23.29
2023-04-02T22:12:34.505Z,23.27
2023-04-02T22:15:03.106Z,23.32
2023-04-02T22:17:31.804Z,23.29
2023-04-02T22:20:00.318Z,23.28
2023-04-02T22:22:28.858Z,23.27
2023-04-02T22:25:00.369Z,23.26
2023-04-02T22:27:28.912Z,23.27
2023-04-02T22:29:57.342Z,23.26
2023-04-02T22:32:25.875Z,23.26
2023-04-02T22:34:54.490Z,23.27
2023-04-02T22:37:23.011Z,23.26
2023-04-02T22:39:51.464Z,23.27
2023-04-02T22:42:21.378Z,23.27
2023-04-02T22:44:50.013Z,23.26
2023-04-02T22:47:18.470Z,23.26
2023-04-02T22:49:46.949Z,23.25
2023-04-02T22:52:15.605Z,23.25
2023-04-02T22:54:44.043Z,23.25
2023-04-02T22:57:12.927Z,23.24
2023-04-02T22:59:42.899Z,23.24
2023-04-02T23:02:11.322Z,23.24
2023-04-02T23:04:39.940Z,23.24
2023-04-02T23:07:08.440Z,23.24
2023-04-02T23:09:37.087Z,23.24
2023-04-02T23:12:06.492Z,23.24
2023-04-02T23:14:36.073Z,23.24
2023-04-02T23:17:06.006Z,23.23
2023-04-02T23:19:34.610Z,23.22
2023-04-02T23:22:03.012Z,23.26
2023-04-02T23:24:31.455Z,23.25
2023-04-02T23:26:59.947Z,23.23
2023-04-02T23:29:28.343Z,23.23
2023-04-02T23:31:56.907Z,23.24
2023-04-02T23:34:27.107Z,23.22
2023-04-02T23:36:55.589Z,23.22
2023-04-02T23:39:24.508Z,23.22
2023-04-02T23:41:53.059Z,23.21
2023-04-02T23:44:21.490Z,23.22
2023-04-02T23:46:49.979Z,23.23
2023-04-02T23:49:18.721Z,23.21
2023-04-02T23:51:48.803Z,23.22
2023-04-02T23:54:17.447Z,23.22
2023-04-02T23:56:45.997Z,23.22
2023-04-02T23:59:14.444Z,23.21
